sensor_id;sensor_type;location;lat;lon;timestamp;pressure;altitude;pressure_sealevel;temperature;humidity
58843;BME280;44614;54.356;10.100;2023-04-15T00:01:45;100855.81;;;6.25;100.00
58843;BME280;44614;54.356;10.100;2023-04-15T00:04:11;100856.84;;;6.24;100.00
58843;BME280;44614;54.356;10.100;2023-04-15T00:06:37;100849.88;;;6.22;100.00
58843;BME280;44614;54.356;10.100;2023-04-15T00:09:04;100856.00;;;6.24;100.00
58843;BME280;44614;54.356;10.100;2023-04-15T00:11:29;100848.88;;;6.23;100.00
58843;BME280;44614;54.356;10.100;2023-04-15T00:13:54;100844.25;;;6.23;100.00
58843;BME280;44614;54.356;10.100;2023-04-15T00:16:20;100845.09;;;6.24;100.00
58843;BME280;44614;54.356;10.100;2023-04-15T00:18:45;100835.88;;;6.25;100.00
58843;BME280;44614;54.356;10.100;2023-04-15T00:21:10;100840.50;;;6.24;100.00
58843;BME280;44614;54.356;10.100;2023-04-15T00:23:36;100836.06;;;6.23;100.00
58843;BME280;44614;54.356;10.100;2023-04-15T00:26:01;100832.50;;;6.23;100.00
58843;BME280;44614;54.356;10.100;2023-04-15T00:28:26;100824.34;;;6.23;100.00
58843;BME280;44614;54.356;10.100;2023-04-15T00:30:52;100828.06;;;6.22;100.00
58843;BME280;44614;54.356;10.100;2023-04-15T00:33:17;100829.97;;;6.21;100.00
58843;BME280;44614;54.356;10.100;2023-04-15T00:35:42;100832.50;;;6.23;100.00
58843;BME280;44614;54.356;10.100;2023-04-15T00:38:07;100825.16;;;6.23;100.00
58843;BME280;44614;54.356;10.100;2023-04-15T00:40:33;100819.72;;;6.23;100.00
58843;BME280;44614;54.356;10.100;2023-04-15T00:42:59;100821.59;;;6.23;100.00
58843;BME280;44614;54.356;10.100;2023-04-15T00:45:24;100827.69;;;6.25;100.00
58843;BME280;44614;54.356;10.100;2023-04-15T00:47:50;100824.13;;;6.24;100.00
58843;BME280;44614;54.356;10.100;2023-04-15T00:50:15;100822.44;;;6.23;100.00
58843;BME280;44614;54.356;10.100;2023-04-15T00:52:41;100824.34;;;6.23;100.00
58843;BME280;44614;54.356;10.100;2023-04-15T00:55:06;100828.94;;;6.22;100.00
58843;BME280;44614;54.356;10.100;2023-04-15T00:57:32;100824.13;;;6.24;100.00
58843;BME280;44614;54.356;10.100;2023-04-15T00:59:57;100817.81;;;6.24;100.00
58843;BME280;44614;54.356;10.100;2023-04-15T01:02:23;100811.72;;;6.22;100.00
58843;BME280;44614;54.356;10.100;2023-04-15T01:04:48;100818.03;;;6.22;100.00
58843;BME280;44614;54.356;10.100;2023-04-15T01:07:13;100812.75;;;6.21;100.00
58843;BME280;44614;54.356;10.100;2023-04-15T01:09:39;100812.75;;;6.21;100.00
58843;BME280;44614;54.356;10.100;2023-04-15T01:12:04;100817.38;;;6.20;100.00
58843;BME280;44614;54.356;10.100;2023-04-15T01:14:30;100805.41;;;6.21;100.00
58843;BME280;44614;54.356;10.100;2023-04-15T01:16:56;100811.72;;;6.22;100.00
58843;BME280;44614;54.356;10.100;2023-04-15T01:19:21;100811.72;;;6.22;100.00
58843;BME280;44614;54.356;10.100;2023-04-15T01:21:46;100808.97;;;6.22;100.00
58843;BME280;44614;54.356;10.100;2023-04-15T01:24:12;100817.81;;;6.24;100.00
58843;BME280;44614;54.356;10.100;2023-04-15T01:26:37;100811.31;;;6.25;100.00
58843;BME280;44614;54.356;10.100;2023-04-15T01:29:03;100810.31;;;6.26;100.00
58843;BME280;44614;54.356;10.100;2023-04-15T01:31:28;100814.72;;;6.27;100.00
58843;BME280;44614;54.356;10.100;2023-04-15T01:33:53;100818.06;;;6.29;100.00
58843;BME280;44614;54.356;10.100;2023-04-15T01:36:18;100814.34;;;6.30;100.00
58843;BME280;44614;54.356;10.100;2023-04-15T01:38:44;100812.44;;;6.30;100.00
58843;BME280;44614;54.356;10.100;2023-04-15T01:41:09;100811.19;;;6.33;100.00
58843;BME280;44614;54.356;10.100;2023-04-15T01:43:34;100820.88;;;6.35;100.00
58843;BME280;44614;54.356;10.100;2023-04-15T01:46:01;100811.84;;;6.35;100.00
58843;BME280;44614;54.356;10.100;2023-04-15T01:48:26;100809.75;;;6.37;100.00
58843;BME280;44614;54.356;10.100;2023-04-15T01:50:53;100806.19;;;6.37;100.00
58843;BME280;44614;54.356;10.100;2023-04-15T01:53:18;100803.28;;;6.38;100.00
58843;BME280;44614;54.356;10.100;2023-04-15T01:55:43;100803.28;;;6.38;100.00
58843;BME280;44614;54.356;10.100;2023-04-15T01:58:09;100806.00;;;6.38;100.00
58843;BME280;44614;54.356;10.100;2023-04-15T02:00:34;100807.69;;;6.39;100.00
58843;BME280;44614;54.356;10.100;2023-04-15T02:02:59;100813.13;;;6.39;100.00
58843;BME280;44614;54.356;10.100;2023-04-15T02:05:24;100817.56;;;6.40;100.00
58843;BME280;44614;54.356;10.100;2023-04-15T02:07:50;100815.88;;;6.39;100.00
58843;BME280;44614;54.356;10.100;2023-04-15T02:10:15;100813.81;;;6.41;100.00
58843;BME280;44614;54.356;10.100;2023-04-15T02:12:41;100800.16;;;6.41;100.00
58843;BME280;44614;54.356;10.100;2023-04-15T02:15:06;100804.75;;;6.41;100.00
58843;BME280;44614;54.356;10.100;2023-04-15T02:17:35;100801.00;;;6.42;100.00
58843;BME280;44614;54.356;10.100;2023-04-15T02:20:00;100801.84;;;6.42;100.00
58843;BME280;44614;54.356;10.100;2023-04-15T02:22:25;100808.13;;;6.43;100.00
58843;BME280;44614;54.356;10.100;2023-04-15T02:24:51;100802.69;;;6.43;100.00
58843;BME280;44614;54.356;10.100;2023-04-15T02:27:17;100808.97;;;6.43;100.00
58843;BME280;44614;54.356;10.100;2023-04-15T02:29:42;100801.63;;;6.44;100.00
58843;BME280;44614;54.356;10.100;2023-04-15T02:32:08;100804.38;;;6.44;100.00
58843;BME280;44614;54.356;10.100;2023-04-15T02:34:33;100805.19;;;6.44;100.00
58843;BME280;44614;54.356;10.100;2023-04-15T02:36:58;100799.75;;;6.44;100.00
58843;BME280;44614;54.356;10.100;2023-04-15T02:39:24;100798.72;;;6.45;100.00
58843;BME280;44614;54.356;10.100;2023-04-15T02:41:49;100796.00;;;6.45;100.00
58843;BME280;44614;54.356;10.100;2023-04-15T02:44:17;100798.72;;;6.45;100.00
58843;BME280;44614;54.356;10.100;2023-04-15T02:46:44;100805.88;;;6.46;100.00
58843;BME280;44614;54.356;10.100;2023-04-15T02:49:12;100797.69;;;6.46;100.00
58843;BME280;44614;54.356;10.100;2023-04-15T02:51:38;100801.47;;;6.45;100.00
58843;BME280;44614;54.356;10.100;2023-04-15T02:54:03;100797.69;;;6.46;100.00
58843;BME280;44614;54.356;10.100;2023-04-15T02:56:28;100801.25;;;6.47;100.00
58843;BME280;44614;54.356;10.100;2023-04-15T02:58:54;100806.50;;;6.48;100.00
58843;BME280;44614;54.356;10.100;2023-04-15T03:01:20;100808.19;;;6.49;100.00
58843;BME280;44614;54.356;10.100;2023-04-15T03:03:46;100799.34;;;6.47;100.00
58843;BME280;44614;54.356;10.100;2023-04-15T03:06:11;100808.19;;;6.49;100.00
58843;BME280;44614;54.356;10.100;2023-04-15T03:08:36;100802.75;;;6.49;100.00
58843;BME280;44614;54.356;10.100;2023-04-15T03:11:01;100801.69;;;6.50;100.00
58843;BME280;44614;54.356;10.100;2023-04-15T03:13:27;100805.47;;;6.49;100.00
58843;BME280;44614;54.356;10.100;2023-04-15T03:15:52;100808.19;;;6.49;100.00
58843;BME280;44614;54.356;10.100;2023-04-15T03:18:17;100798.13;;;6.50;100.00
58843;BME280;44614;54.356;10.100;2023-04-15T03:20:42;100794.56;;;6.49;100.00
58843;BME280;44614;54.356;10.100;2023-04-15T03:23:07;100787.22;;;6.50;100.00
58843;BME280;44614;54.356;10.100;2023-04-15T03:25:33;100791.84;;;6.49;100.00
58843;BME280;44614;54.356;10.100;2023-04-15T03:27:58;100793.50;;;6.50;100.00
58843;BME280;44614;54.356;10.100;2023-04-15T03:30:24;100793.50;;;6.50;100.00
58843;BME280;44614;54.356;10.100;2023-04-15T03:32:49;100786.16;;;6.51;100.00
58843;BME280;44614;54.356;10.100;2023-04-15T03:35:15;100789.72;;;6.51;100.00
58843;BME280;44614;54.356;10.100;2023-04-15T03:37:40;100792.47;;;6.51;100.00
58843;BME280;44614;54.356;10.100;2023-04-15T03:40:05;100786.81;;;6.53;100.00
58843;BME280;44614;54.356;10.100;2023-04-15T03:42:31;100781.38;;;6.53;100.00
58843;BME280;44614;54.356;10.100;2023-04-15T03:44:56;100785.78;;;6.54;100.00
58843;BME280;44614;54.356;10.100;2023-04-15T03:47:21;100785.56;;;6.55;100.00
58843;BME280;44614;54.356;10.100;2023-04-15T03:49:46;100785.56;;;6.55;100.00
58843;BME280;44614;54.356;10.100;2023-04-15T03:52:12;100787.47;;;6.55;100.00
58843;BME280;44614;54.356;10.100;2023-04-15T03:54:37;100786.63;;;6.54;100.00
58843;BME280;44614;54.356;10.100;2023-04-15T03:57:02;100789.34;;;6.54;100.00
58843;BME280;44614;54.356;10.100;2023-04-15T03:59:27;100785.78;;;6.54;100.00
58843;BME280;44614;54.356;10.100;2023-04-15T04:01:52;100790.19;;;6.55;100.00
58843;BME280;44614;54.356;10.100;2023-04-15T04:04:18;100792.91;;;6.55;100.00
58843;BME280;44614;54.356;10.100;2023-04-15T04:06:43;100790.19;;;6.55;100.00
58843;BME280;44614;54.356;10.100;2023-04-15T04:09:08;100790.00;;;6.56;100.00
58843;BME280;44614;54.356;10.100;2023-04-15T04:11:33;100791.03;;;6.55;100.00
58843;BME280;44614;54.356;10.100;2023-04-15T04:13:58;100794.41;;;6.57;100.00
58843;BME280;44614;54.356;10.100;2023-04-15T04:16:24;100790.63;;;6.58;100.00
58843;BME280;44614;54.356;10.100;2023-04-15T04:18:49;100800.50;;;6.59;100.00
58843;BME280;44614;54.356;10.100;2023-04-15T04:21:15;100800.50;;;6.59;100.00
58843;BME280;44614;54.356;10.100;2023-04-15T04:23:40;100800.50;;;6.59;100.00
58843;BME280;44614;54.356;10.100;2023-04-15T04:26:06;100806.78;;;6.60;100.00
58843;BME280;44614;54.356;10.100;2023-04-15T04:28:31;100806.63;;;6.62;100.00
58843;BME280;44614;54.356;10.100;2023-04-15T04:30:56;100807.47;;;6.62;100.00
58843;BME280;44614;54.356;10.100;2023-04-15T04:33:21;100824.66;;;6.63;100.00
58843;BME280;44614;54.356;10.100;2023-04-15T04:35:46;100800.09;;;6.63;100.00
58843;BME280;44614;54.356;10.100;2023-04-15T04:38:12;100791.91;;;6.63;100.00
58843;BME280;44614;54.356;10.100;2023-04-15T04:40:37;100803.50;;;6.65;100.00
58843;BME280;44614;54.356;10.100;2023-04-15T04:43:02;100791.53;;;6.66;100.00
58843;BME280;44614;54.356;10.100;2023-04-15T04:45:28;100800.56;;;6.66;100.00
58843;BME280;44614;54.356;10.100;2023-04-15T04:47:53;100797.63;;;6.68;100.00
58843;BME280;44614;54.356;10.100;2023-04-15T04:50:18;100797.44;;;6.69;100.00
58843;BME280;44614;54.356;10.100;2023-04-15T04:52:43;100803.72;;;6.70;100.00
58843;BME280;44614;54.356;10.100;2023-04-15T04:55:08;100804.41;;;6.72;100.00
58843;BME280;44614;54.356;10.100;2023-04-15T04:57:34;100804.19;;;6.73;100.00
58843;BME280;44614;54.356;10.100;2023-04-15T05:00:03;100741.78;;;6.35;100.00
58843;BME280;44614;54.356;10.100;2023-04-15T05:02:29;100800.41;;;6.74;100.00
58843;BME280;44614;54.356;10.100;2023-04-15T05:04:54;100801.25;;;6.75;100.00
58843;BME280;44614;54.356;10.100;2023-04-15T05:07:20;100809.25;;;6.76;100.00
58843;BME280;44614;54.356;10.100;2023-04-15T05:09:45;100799.16;;;6.77;100.00
58843;BME280;44614;54.356;10.100;2023-04-15T05:12:10;100808.00;;;6.79;100.00
58843;BME280;44614;54.356;10.100;2023-04-15T05:14:39;100808.84;;;6.79;100.00
58843;BME280;44614;54.356;10.100;2023-04-15T05:17:04;100787.66;;;6.81;100.00
58843;BME280;44614;54.356;10.100;2023-04-15T05:19:29;100796.69;;;6.82;100.00
58843;BME280;44614;54.356;10.100;2023-04-15T05:21:55;100783.03;;;6.82;100.00
58843;BME280;44614;54.356;10.100;2023-04-15T05:24:20;100790.19;;;6.83;100.00
58843;BME280;44614;54.356;10.100;2023-04-15T05:26:45;100801.13;;;6.83;100.00
58843;BME280;44614;54.356;10.100;2023-04-15T05:29:11;100804.69;;;6.83;100.00
58843;BME280;44614;54.356;10.100;2023-04-15T05:31:36;100814.75;;;6.83;100.00
58843;BME280;44614;54.356;10.100;2023-04-15T05:34:01;100819.81;;;6.86;100.00
58843;BME280;44614;54.356;10.100;2023-04-15T05:36:27;100812.28;;;6.88;100.00
58843;BME280;44614;54.356;10.100;2023-04-15T05:38:52;100817.50;;;6.90;100.00
58843;BME280;44614;54.356;10.100;2023-04-15T05:41:18;100819.22;;;6.91;100.00
58843;BME280;44614;54.356;10.100;2023-04-15T05:43:43;100818.19;;;6.92;100.00
58843;BME280;44614;54.356;10.100;2023-04-15T05:46:08;100824.47;;;6.92;100.00
58843;BME280;44614;54.356;10.100;2023-04-15T05:48:33;100835.41;;;6.92;100.00
58843;BME280;44614;54.356;10.100;2023-04-15T05:50:59;100834.34;;;6.93;100.00
58843;BME280;44614;54.356;10.100;2023-04-15T05:53:24;100829.53;;;6.95;100.00
58843;BME280;44614;54.356;10.100;2023-04-15T05:55:50;100837.53;;;6.97;100.00
58843;BME280;44614;54.356;10.100;2023-04-15T05:58:15;100838.19;;;6.99;100.00
58843;BME280;44614;54.356;10.100;2023-04-15T06:00:40;100823.69;;;6.98;100.00
58843;BME280;44614;54.356;10.100;2023-04-15T06:03:06;100827.88;;;7.01;100.00
58843;BME280;44614;54.356;10.100;2023-04-15T06:05:31;100835.03;;;7.02;100.00
58843;BME280;44614;54.356;10.100;2023-04-15T06:07:57;100832.75;;;7.05;100.00
58843;BME280;44614;54.356;10.100;2023-04-15T06:10:22;100848.72;;;7.08;100.00
58843;BME280;44614;54.356;10.100;2023-04-15T06:12:47;100850.22;;;7.11;100.00
58843;BME280;44614;54.356;10.100;2023-04-15T06:15:13;100842.47;;;7.15;100.00
58843;BME280;44614;54.356;10.100;2023-04-15T06:17:38;100843.75;;;7.19;100.00
58843;BME280;44614;54.356;10.100;2023-04-15T06:20:03;100840.63;;;7.22;100.00
58843;BME280;44614;54.356;10.100;2023-04-15T06:22:28;100829.50;;;7.23;100.00
58843;BME280;44614;54.356;10.100;2023-04-15T06:24:53;100838.13;;;7.27;100.00
58843;BME280;44614;54.356;10.100;2023-04-15T06:27:19;100849.72;;;7.29;100.00
58843;BME280;44614;54.356;10.100;2023-04-15T06:29:44;100852.00;;;7.32;100.00
58843;BME280;44614;54.356;10.100;2023-04-15T06:32:10;100866.72;;;7.31;100.00
58843;BME280;44614;54.356;10.100;2023-04-15T06:34:35;100862.31;;;7.30;100.00
58843;BME280;44614;54.356;10.100;2023-04-15T06:37:01;100866.72;;;7.31;100.00
58843;BME280;44614;54.356;10.100;2023-04-15T06:39:26;100862.94;;;7.32;100.00
58843;BME280;44614;54.356;10.100;2023-04-15T06:41:51;100871.13;;;7.32;100.00
58843;BME280;44614;54.356;10.100;2023-04-15T06:44:17;100869.25;;;7.32;100.00
58843;BME280;44614;54.356;10.100;2023-04-15T06:46:42;100860.44;;;7.30;100.00
58843;BME280;44614;54.356;10.100;2023-04-15T06:49:08;100877.66;;;7.31;100.00
58843;BME280;44614;54.356;10.100;2023-04-15T06:51:33;100880.84;;;7.35;100.00
58843;BME280;44614;54.356;10.100;2023-04-15T06:53:59;100875.38;;;7.35;100.00
58843;BME280;44614;54.356;10.100;2023-04-15T06:56:24;100882.72;;;7.34;100.00
58843;BME280;44614;54.356;10.100;2023-04-15T06:58:49;100887.75;;;7.30;100.00
58843;BME280;44614;54.356;10.100;2023-04-15T07:01:15;100880.19;;;7.32;100.00
58843;BME280;44614;54.356;10.100;2023-04-15T07:03:40;100896.00;;;7.37;100.00
58843;BME280;44614;54.356;10.100;2023-04-15T07:06:05;100888.03;;;7.42;100.00
58843;BME280;44614;54.356;10.100;2023-04-15T07:08:32;100897.91;;;7.43;100.00
58843;BME280;44614;54.356;10.100;2023-04-15T07:10:57;100903.81;;;7.47;100.00
58843;BME280;44614;54.356;10.100;2023-04-15T07:13:23;100898.78;;;7.50;100.00
58843;BME280;44614;54.356;10.100;2023-04-15T07:15:48;100904.91;;;7.52;100.00
58843;BME280;44614;54.356;10.100;2023-04-15T07:18:13;100912.28;;;7.52;100.00
58843;BME280;44614;54.356;10.100;2023-04-15T07:20:38;100911.22;;;7.53;100.00
58843;BME280;44614;54.356;10.100;2023-04-15T07:23:04;100912.06;;;7.53;100.00
58843;BME280;44614;54.356;10.100;2023-04-15T07:25:29;100914.38;;;7.56;100.00
58843;BME280;44614;54.356;10.100;2023-04-15T07:27:54;100911.25;;;7.60;100.00
58843;BME280;44614;54.356;10.100;2023-04-15T07:30:19;100903.91;;;7.60;100.00
58843;BME280;44614;54.356;10.100;2023-04-15T07:32:44;100917.16;;;7.63;100.00
58843;BME280;44614;54.356;10.100;2023-04-15T07:35:10;100904.53;;;7.62;100.00
58843;BME280;44614;54.356;10.100;2023-04-15T07:37:35;100919.91;;;7.63;100.00
58843;BME280;44614;54.356;10.100;2023-04-15T07:40:01;100919.91;;;7.63;100.00
58843;BME280;44614;54.356;10.100;2023-04-15T07:42:27;100916.94;;;7.65;100.00
58843;BME280;44614;54.356;10.100;2023-04-15T07:44:53;100914.44;;;7.70;100.00
58843;BME280;44614;54.356;10.100;2023-04-15T07:47:18;100928.38;;;7.75;100.00
58843;BME280;44614;54.356;10.100;2023-04-15T07:49:43;100924.59;;;7.76;100.00
58843;BME280;44614;54.356;10.100;2023-04-15T07:52:09;100926.50;;;7.82;100.00
58843;BME280;44614;54.356;10.100;2023-04-15T07:54:34;100916.25;;;7.91;100.00
58843;BME280;44614;54.356;10.100;2023-04-15T07:56:59;100923.03;;;8.01;100.00
58843;BME280;44614;54.356;10.100;2023-04-15T07:59:25;100926.16;;;8.05;100.00
58843;BME280;44614;54.356;10.100;2023-04-15T08:01:53;100920.94;;;8.10;100.00
58843;BME280;44614;54.356;10.100;2023-04-15T08:04:19;100944.09;;;8.14;100.00
58843;BME280;44614;54.356;10.100;2023-04-15T08:06:44;100935.06;;;8.14;100.00
58843;BME280;44614;54.356;10.100;2023-04-15T08:09:09;100929.19;;;8.23;100.00
58843;BME280;44614;54.356;10.100;2023-04-15T08:11:35;100930.28;;;8.29;100.00
58843;BME280;44614;54.356;10.100;2023-04-15T08:14:00;100933.22;;;8.34;100.00
58843;BME280;44614;54.356;10.100;2023-04-15T08:16:25;100930.31;;;8.42;100.00
58843;BME280;44614;54.356;10.100;2023-04-15T08:18:54;100939.22;;;8.51;100.00
58843;BME280;44614;54.356;10.100;2023-04-15T08:21:20;100945.97;;;8.68;100.00
58843;BME280;44614;54.356;10.100;2023-04-15T08:23:46;100941.78;;;8.79;100.00
58843;BME280;44614;54.356;10.100;2023-04-15T08:26:12;100952.28;;;8.75;100.00
58843;BME280;44614;54.356;10.100;2023-04-15T08:28:38;100942.19;;;8.76;100.00
58843;BME280;44614;54.356;10.100;2023-04-15T08:31:04;100957.78;;;8.82;100.00
58843;BME280;44614;54.356;10.100;2023-04-15T08:33:29;100955.41;;;8.66;100.00
58843;BME280;44614;54.356;10.100;2023-04-15T08:35:54;100957.31;;;8.52;100.00
58843;BME280;44614;54.356;10.100;2023-04-15T08:38:19;100966.53;;;8.44;100.00
58843;BME280;44614;54.356;10.100;2023-04-15T08:40:45;100966.72;;;8.36;100.00
58843;BME280;44614;54.356;10.100;2023-04-15T08:43:21;100957.66;;;8.36;100.00
58843;BME280;44614;54.356;10.100;2023-04-15T08:45:50;100960.59;;;8.34;100.00
58843;BME280;44614;54.356;10.100;2023-04-15T08:48:16;100968.13;;;8.25;100.00
58843;BME280;44614;54.356;10.100;2023-04-15T08:50:41;100964.75;;;8.17;100.00
58843;BME280;44614;54.356;10.100;2023-04-15T08:53:07;100963.22;;;8.07;100.00
58843;BME280;44614;54.356;10.100;2023-04-15T08:55:33;100961.53;;;8.06;100.00
58843;BME280;44614;54.356;10.100;2023-04-15T08:58:00;100960.31;;;8.16;100.00
58843;BME280;44614;54.356;10.100;2023-04-15T09:00:25;100966.03;;;8.21;100.00
58843;BME280;44614;54.356;10.100;2023-04-15T09:02:51;100981.78;;;8.19;100.00
58843;BME280;44614;54.356;10.100;2023-04-15T09:05:16;100982.44;;;8.27;100.00
58843;BME280;44614;54.356;10.100;2023-04-15T09:07:41;100984.16;;;8.35;100.00
58843;BME280;44614;54.356;10.100;2023-04-15T09:10:07;100985.03;;;8.36;100.00
58843;BME280;44614;54.356;10.100;2023-04-15T09:12:35;100985.88;;;8.36;100.00
58843;BME280;44614;54.356;10.100;2023-04-15T09:15:01;100988.19;;;8.39;100.00
58843;BME280;44614;54.356;10.100;2023-04-15T09:17:27;100988.88;;;8.54;100.00
58843;BME280;44614;54.356;10.100;2023-04-15T09:22:33;100991.72;;;8.94;100.00
58843;BME280;44614;54.356;10.100;2023-04-15T09:24:58;100997.81;;;9.03;100.00
58843;BME280;44614;54.356;10.100;2023-04-15T09:27:23;101008.38;;;9.13;100.00
58843;BME280;44614;54.356;10.100;2023-04-15T09:29:49;101000.38;;;9.31;100.00
58843;BME280;44614;54.356;10.100;2023-04-15T09:32:14;101001.63;;;9.62;100.00
58843;BME280;44614;54.356;10.100;2023-04-15T09:34:40;100995.47;;;9.86;100.00
58843;BME280;44614;54.356;10.100;2023-04-15T09:37:05;101008.03;;;10.14;100.00
58843;BME280;44614;54.356;10.100;2023-04-15T09:39:44;101011.25;;;10.04;100.00
58843;BME280;44614;54.356;10.100;2023-04-15T09:42:09;101010.41;;;10.04;100.00
58843;BME280;44614;54.356;10.100;2023-04-15T09:44:35;101012.00;;;10.24;100.00
58843;BME280;44614;54.356;10.100;2023-04-15T09:47:01;101006.78;;;10.16;100.00
58843;BME280;44614;54.356;10.100;2023-04-15T09:49:26;101008.44;;;10.31;100.00
58843;BME280;44614;54.356;10.100;2023-04-15T09:51:56;101011.19;;;10.31;100.00
58843;BME280;44614;54.356;10.100;2023-04-15T09:54:22;101017.28;;;10.33;100.00
58843;BME280;44614;54.356;10.100;2023-04-15T09:56:47;101011.09;;;10.51;100.00
58843;BME280;44614;54.356;10.100;2023-04-15T09:59:12;101022.41;;;10.67;100.00
58843;BME280;44614;54.356;10.100;2023-04-15T10:01:38;100996.69;;;10.62;100.00
58843;BME280;44614;54.356;10.100;2023-04-15T10:04:05;101034.97;;;10.88;99.17
58843;BME280;44614;54.356;10.100;2023-04-15T10:06:31;101030.44;;;10.69;97.54
58843;BME280;44614;54.356;10.100;2023-04-15T10:08:59;101040.19;;;10.65;97.86
58843;BME280;44614;54.356;10.100;2023-04-15T10:11:27;101037.72;;;10.50;98.40
58843;BME280;44614;54.356;10.100;2023-04-15T10:13:53;101040.19;;;10.65;100.00
58843;BME280;44614;54.356;10.100;2023-04-15T10:16:19;101041.56;;;10.81;99.81
58843;BME280;44614;54.356;10.100;2023-04-15T10:18:46;101042.53;;;11.00;99.22
58843;BME280;44614;54.356;10.100;2023-04-15T10:21:12;101037.88;;;11.00;97.66
58843;BME280;44614;54.356;10.100;2023-04-15T10:23:42;101048.59;;;11.08;97.09
58843;BME280;44614;54.356;10.100;2023-04-15T10:26:08;101056.41;;;11.11;96.89
58843;BME280;44614;54.356;10.100;2023-04-15T10:28:34;101050.47;;;11.39;98.61
58843;BME280;44614;54.356;10.100;2023-04-15T10:30:59;101047.34;;;11.61;95.46
58843;BME280;44614;54.356;10.100;2023-04-15T10:33:24;101053.13;;;11.53;93.64
58843;BME280;44614;54.356;10.100;2023-04-15T10:35:51;101060.38;;;11.15;93.71
58843;BME280;44614;54.356;10.100;2023-04-15T10:38:30;101057.53;;;11.29;96.04
58843;BME280;44614;54.356;10.100;2023-04-15T10:41:10;101056.09;;;11.51;96.69
58843;BME280;44614;54.356;10.100;2023-04-15T10:43:36;101050.94;;;11.61;95.90
58843;BME280;44614;54.356;10.100;2023-04-15T10:46:03;101055.47;;;11.74;94.07
58843;BME280;44614;54.356;10.100;2023-04-15T10:48:29;101054.47;;;11.93;94.91
58843;BME280;44614;54.356;10.100;2023-04-15T10:50:55;101065.44;;;12.18;93.64
58843;BME280;44614;54.356;10.100;2023-04-15T10:53:27;101059.19;;;12.30;89.25
58843;BME280;44614;54.356;10.100;2023-04-15T10:55:53;101060.53;;;12.20;90.17
58843;BME280;44614;54.356;10.100;2023-04-15T10:58:18;101068.88;;;11.95;89.94
58843;BME280;44614;54.356;10.100;2023-04-15T11:00:50;101074.56;;;11.94;89.87
58843;BME280;44614;54.356;10.100;2023-04-15T11:03:37;101061.84;;;12.00;90.40
58843;BME280;44614;54.356;10.100;2023-04-15T11:06:04;101073.56;;;12.13;90.34
58843;BME280;44614;54.356;10.100;2023-04-15T11:11:14;101077.06;;;12.39;91.16
58843;BME280;44614;54.356;10.100;2023-04-15T11:13:46;101078.81;;;12.70;91.45
58843;BME280;44614;54.356;10.100;2023-04-15T11:16:12;101094.69;;;12.75;88.17
58843;BME280;44614;54.356;10.100;2023-04-15T11:18:37;101083.03;;;12.73;87.75
58843;BME280;44614;54.356;10.100;2023-04-15T11:21:06;101083.72;;;12.68;88.76
58843;BME280;44614;54.356;10.100;2023-04-15T11:23:38;101078.47;;;12.97;89.98
58843;BME280;44614;54.356;10.100;2023-04-15T11:26:05;101084.88;;;13.09;87.60
58843;BME280;44614;54.356;10.100;2023-04-15T11:28:33;101072.91;;;13.15;84.99
58843;BME280;44614;54.356;10.100;2023-04-15T11:31:04;101092.28;;;13.08;84.86
58843;BME280;44614;54.356;10.100;2023-04-15T11:33:29;101086.22;;;13.18;85.75
58843;BME280;44614;54.356;10.100;2023-04-15T11:35:55;101089.53;;;13.27;86.08
58843;BME280;44614;54.356;10.100;2023-04-15T11:38:20;101092.72;;;13.54;86.72
58843;BME280;44614;54.356;10.100;2023-04-15T11:40:46;101091.38;;;13.45;80.53
58843;BME280;44614;54.356;10.100;2023-04-15T11:43:16;101087.13;;;13.30;84.00
58843;BME280;44614;54.356;10.100;2023-04-15T11:45:48;101097.59;;;13.40;83.76
58843;BME280;44614;54.356;10.100;2023-04-15T11:48:13;101095.19;;;13.32;83.09
58843;BME280;44614;54.356;10.100;2023-04-15T11:50:39;101099.94;;;13.55;85.10
58843;BME280;44614;54.356;10.100;2023-04-15T11:53:05;101092.88;;;13.82;84.73
58843;BME280;44614;54.356;10.100;2023-04-15T11:55:40;101097.31;;;14.07;84.53
58843;BME280;44614;54.356;10.100;2023-04-15T12:00:34;101101.28;;;14.23;82.29
58843;BME280;44614;54.356;10.100;2023-04-15T12:03:13;101104.41;;;14.38;81.48
58843;BME280;44614;54.356;10.100;2023-04-15T12:08:22;101116.44;;;14.55;79.80
58843;BME280;44614;54.356;10.100;2023-04-15T12:10:47;101116.44;;;14.55;78.64
58843;BME280;44614;54.356;10.100;2023-04-15T12:13:12;101125.56;;;14.09;76.04
58843;BME280;44614;54.356;10.100;2023-04-15T12:15:38;101125.66;;;13.90;79.87
58843;BME280;44614;54.356;10.100;2023-04-15T12:18:03;101128.34;;;13.55;78.90
58843;BME280;44614;54.356;10.100;2023-04-15T12:20:29;101135.84;;;13.36;80.22
58843;BME280;44614;54.356;10.100;2023-04-15T12:23:04;101137.63;;;13.31;83.05
58843;BME280;44614;54.356;10.100;2023-04-15T12:25:33;101134.41;;;13.87;84.75
58843;BME280;44614;54.356;10.100;2023-04-15T12:27:58;101138.06;;;14.23;77.12
58843;BME280;44614;54.356;10.100;2023-04-15T12:30:24;101137.03;;;13.71;78.46
58843;BME280;44614;54.356;10.100;2023-04-15T12:32:50;101133.09;;;13.90;79.15
58843;BME280;44614;54.356;10.100;2023-04-15T12:35:15;101135.38;;;13.81;76.58
58843;BME280;44614;54.356;10.100;2023-04-15T12:37:43;101142.97;;;13.98;77.32
58843;BME280;44614;54.356;10.100;2023-04-15T12:40:08;101141.19;;;14.62;79.13
58843;BME280;44614;54.356;10.100;2023-04-15T12:42:34;101146.81;;;14.44;72.84
58843;BME280;44614;54.356;10.100;2023-04-15T12:44:59;101154.75;;;14.17;73.96